CALIFORNIA METAR OBSERVATIONS
*** Not a substitute for official aviation weather ***

METAR Decoder

California METARS via your cellphone - use these links:
http://www.ocflyingclub.com/metars.cfm
http://www.ocflyingclub.com/metar.cfm

KSNA 251253Z AUTO 03004KT 10SM CLR 07/00 A3018 RMK AO2 SLP219 T00670000
 
Date: 13Z 25 FEB 18

K9L2 251258Z AUTO 36004KT 10SM CLR M05/M13 A3023 RMK AO2 SLP247 T10501130
     FZRANO
KAAT 251255Z AUTO 00000KT 10SM OVC060 M09/M11 A3023 RMK AO2 SLP273
     T10941106
KACV 251253Z AUTO 00000KT 10SM BKN035 03/01 A3040 RMK AO2 SLP301 T00280006
KAJO 251256Z AUTO 29004KT 10SM CLR 01/M03 A3019 RMK AO2 SLP238 T00061028
     FZRANO
KAPC 251254Z AUTO 32005KT 10SM CLR 02/00 A3034 RMK AO2 SLP264 T00220000
KAUN 251315Z AUTO 00000KT 10SM CLR 00/M03 A3027 RMK AO1
KAVX 251251Z AUTO 13006KT 10SM CLR 08/04 A3015 RMK AO2 SLP213 T00780044
KBAB 251258Z AUTO 33007KT 10SM CLR 00/M02 A3031 RMK AO2 SLP268 T00001019 $
KBAN 251252Z AUTO 00000KT 10SM CLR M16/M19 A3018 RMK AO2 SLP271 T11561189
     $
KBFL 251254Z AUTO 11003KT 10SM CLR 03/M06 A3030 RMK AO2 SLP259 T00331056
KBIH 251256Z AUTO 35008KT 10SM CLR M03/M12 A3023 RMK AO2 SLP236 T10281122
KBLH 251252Z AUTO 36011KT 10SM CLR 07/M14 A3020 RMK AO2 SLP225 T00671139
KBLU 251252Z AUTO VRB05KT 10SM CLR M02/M12 A3018 RMK AO2 SLP249 T10221122
KBUR 251253Z 00000KT 10SM CLR 07/01 A3016 RMK AO2 SLP208 T00670011
KBYS 251255Z AUTO 11001KT 10SM CLR 03/M15 A3025 RMK AO2 SLP262 WND DATA
     ESTMD T00291152
KCCR 251253Z 14003KT 10SM CLR 03/01 A3034 RMK AO2 SLP260 T00330011
KCEC 251256Z AUTO 15005KT 10SM BKN028 BKN034 OVC043 07/03 A3039 RMK AO2
     SLP291 T00720033
KCIC 251315Z AUTO 00000KT 10SM CLR 00/M03 A3033 RMK AO1
KCMA 251255Z AUTO 00000KT 10SM CLR 03/M04 A3017 RMK AO2 SLP225 T00281044
KCNO 251253Z AUTO 00000KT 7SM CLR 02/M02 A3019 RMK AO2 SLP223 T00171022
KCQT 251247Z AUTO 00000KT 10SM CLR 09/M01 A3017 RMK AO2 SLP218 T00891006
KCRQ 251253Z AUTO 00000KT 10SM CLR 06/01 A3016 RMK AO2 SLP213 T00610006
KCVH 251315Z AUTO 00000KT 10SM CLR 01/M00 A3034 RMK A01
KCZZ 251252Z AUTO 00000KT M03/M08 A3013 RMK AO1 SLP200 T10281078
KDAG 251250Z AUTO 25006KT 10SM CLR 00/M09 A3025 RMK AO2 SLP242 T00001094
KDVO 251315Z AUTO 00000KT 10SM CLR 04/01 A3033 RMK AO2
KE16 251315Z AUTO 00000KT 10SM BKN016 03/02 A3034 RMK AO2
KEDU 251320Z AUTO 30004KT 10SM CLR 04/00 A3034 RMK AO1
KEDW 251258Z AUTO 13005KT 10SM CLR M03/M12 A3022 RMK AO2 SLP243 T10331118
KEED 251256Z AUTO 00000KT 10SM CLR 04/M18 A3022 RMK AO2 SLP228 T00391178
KF70 251315Z AUTO 01005KT 10SM CLR 01/M02 A3018 RMK AO1
KFAT 251253Z 00000KT 10SM CLR 03/M02 A3031 RMK AO2 SLP263 T00281022
KFCH 251315Z AUTO 01004KT 10SM CLR 04/02 A3031 RMK A01
KFOT 251315Z AUTO 15008KT 6SM OVC029 00/00 A3041 RMK AO1
KFUL 251253Z AUTO 09005KT 10SM CLR 06/M01 A3017 RMK AO2 SLP217 T00611006
KGOO 251320Z AUTO 03005KT 10SM CLR 02/M08 A3024 RMK AO1
KHAF 251315Z AUTO 00000KT 9SM CLR 04/02 A3030 RMK AO2
KHHR 251253Z AUTO 04003KT 10SM CLR 08/01 A3019 RMK AO2 SLP221 T00780006 $
KHJO 251253Z AUTO 12003KT 4SM BR CLR 02/01 A3031 RMK AO2 SLP268 T00170006
KHWD 251254Z AUTO 07005KT 10SM CLR 04/00 A3033 RMK AO2 SLP280 T00390000
KIPL 251253Z AUTO 25003KT 10SM CLR 04/M04 A3020 RMK AO2 SLP225 T00391044
KIZA 251315Z AUTO 09008KT 10SM CLR 00/00 A3020 RMK AO2
KL18 251315Z AUTO 01005KT 10SM CLR 04/M02 A3018 RMK AO2
KL35 251315Z AUTO 06007KT 10SM M08/M14 A3016 RMK AO2
KLAX 251253Z 05006KT 10SM CLR 08/01 A3018 RMK AO2 SLP219 T00780006
KLGB 251253Z AUTO 00000KT 10SM CLR 07/01 A3018 RMK AO2 SLP220 T00720006 $
KLHM 251315Z AUTO 35005KT 10SM CLR 00/M02 A3031 RMK AO1
KLPC 251256Z AUTO 34006KT 10SM CLR 07/01 A3022 RMK AO2 SLP239 T00720011
KLVK 251253Z AUTO 07003KT 10SM CLR M01/M01 A3032 RMK AO2 SLP270 T10111011
KMAE 251253Z AUTO 00000KT 10SM CLR 02/01 A3031 RMK AO2 SLP264 T00220006
KMCC 251315Z AUTO 33003KT 10SM CLR 01/M01 A3033 RMK AO2
KMCE 251253Z AUTO 29004KT 10SM CLR 03/01 A3030 RMK AO2 SLP261 T00280006
KMER 251315Z AUTO 00000KT 10SM CLR 04/03 A3031 RMK AO1
KMHR 251258Z 33006KTKT 10SM SKC 03/M01 A3030
KMHS 251256Z AUTO 00000KT 9SM OVC065 M02/M06 A3024 RMK AO2 SLP278
     T10221056
KMHV 251300Z AUTO 31005KT 10SM CLR M01/M09 A3022 RMK A01
KMMH 251315Z AUTO 33003KT 10SM CLR M13/M16 A3018 RMK AO2 T11281160
KMOD 251253Z AUTO 30008KT 10SM CLR 05/02 A3030 RMK AO2 SLP260 T00500022
KMRY 251254Z AUTO 08005KT 10SM CLR 04/02 A3031 RMK AO2 SLP279 T00390022
KMYF 251253Z AUTO 00000KT 10SM CLR 04/M02 A3018 RMK AO2 SLP220 T00441022
KMYV 251253Z AUTO 00000KT 10SM CLR 01/M02 A3033 RMK AO2 SLP275 T00111017
KNFG 251255Z AUTO 00000KT 10SM CLR 00/M02 A3019 RMK AO2 SLP224 T00001017
KNJK 251256Z AUTO 27003KT 10SM CLR 06/M07 A3022 RMK AO2 SLP249 T00611072 $
KNKX 251255Z 11004KT 10SM CLR 06/M01 A3017 RMK AO2 SLP214 T00561011 $
KNLC 251256Z AUTO 21004KT 10SM CLR 03/M01 A3031 RMK AO2 SLP264 T00331011 $
KNRS 251256Z AUTO 09010KT 10SM CLR 06/M02 A3019 RMK AO2 SLP224 T00611017
KNSI 251257Z AUTO 33015KT CLR 09/ A3017 RMK AO2 SLP212 T0094 $
KNTD 251258Z AUTO 31004KT 10SM CLR 04/M02 A3019 RMK AO2 SLP223 T00391022
     PWINO $
KNUQ 251256Z 00000KT 10SM CLR 04/03 A3034 RMK AO2 SLP276 T00440028
KNXF 251256Z AUTO 05009KT 10SM CLR 07/00 A3018 RMK AO2 SLP309 T00670000 $
KNXP 251256Z AUTO 29009KT 10SM CLR 03/M11 A3030 RMK AO2 SLP248 T00331106 $
KO22 251315Z AUTO 00000KT 10SM CLR M02/M04 A3027 RMK AO1
KO69 251315Z AUTO 00000KT 10SM CLR M00/M00 A3034 RMK A01
KO86 251310Z AUTO 00000KT 10SM BKN021 M03/M04 A3032 RMK AO1
KOAK 251253Z 00000KT 10SM CLR 02/02 A3034 RMK AO2 SLP272 T00220017
KOKB 251252Z AUTO 02003KT 10SM CLR 02/M01 A3019 RMK AO2 SLP221 T00221011
KONT 251253Z 27003KT 10SM CLR 04/M02 A3017 RMK AO2 SLP219 T00391022
KOVE 251253Z AUTO 30003KT 10SM CLR 02/M02 A3034 RMK AO2 SLP276 T00171017 $
KOXR 251251Z AUTO 00000KT 10SM CLR 07/M04 A3017 RMK AO2 SLP217 T00721039
KPMD 251253Z AUTO 00000KT 10SM CLR M01/M09 A3023 RMK AO2 SLP240 T10111094
KPRB 251253Z AUTO 07007KT 10SM CLR M02/M03 A3029 RMK AO2 SLP258 T10171033
     $
KPSP 251253Z AUTO 31006KT 10SM CLR 13/M09 A3023 RMK AO2 SLP237 T01281094
KPTV 251256Z AUTO 13004KT 10SM CLR 01/M03 A3031 RMK AO2 SLP278 T00061033
     FZRANO
KPVF 251315Z AUTO 06008KT 10SM CLR 00/M08 A3024 RMK AO1
KRAL 251253Z AUTO 12003KT 10SM CLR 04/M01 A3018 RMK AO2 SLP212 T00391006 $
KRBL 251254Z AUTO 33007KT 10SM CLR 01/M03 A3034 RMK AO2 SLP274 T00061033
KRDD 251253Z AUTO 01003KT 10SM CLR M02/M04 A3032 RMK AO2 SLP270 T10221044
KRIV 251258Z AUTO 00000KT 10SM CLR M02/M04 A3017 RMK AO2 SLP222 T10221044
KRNM 251253Z AUTO 11006KT 9SM CLR M04/M05 A3016 RMK AO2 SLP217 T10391050 $
KSAN 251251Z 13004KT 10SM CLR 08/M01 A3021 RMK AO2 SLP229 T00781011
KSBA 251253Z AUTO 36004KT 10SM CLR 04/M01 A3017 RMK AO2 SLP217 T00391011
KSBD 251320Z AUTO 04004KT 10SM CLR 03/M04 A3019 RMK AO2 T00331044
KSBP 251256Z 29009KT 10SM CLR 08/02 A3025 RMK AO2 SLP244 T00780022
KSCK 251255Z AUTO 28005KT 10SM CLR 02/01 A3031 RMK AO2 SLP263 T00220006
KSDB 251253Z AUTO 35011KT 10SM CLR M01/M08 A3019 RMK AO2 SLP224 T10111078
KSDM 251253Z AUTO 12008KT 10SM CLR 04/M03 A3018 RMK AO2 SLP220 T00441028
KSEE 251315Z AUTO 00000KT 10SM CLR 02/M01 A3019 RMK AO2
KSFO 251256Z 22003KT 10SM FEW170 06/02 A3033 RMK AO2 SLP272 T00610017 $
KSIY 251253Z AUTO 00000KT 10SM OVC060 M03/M04 A3029 RMK AO2 SLP285
     T10331044
KSJC 251253Z AUTO 00000KT 10SM CLR 04/02 A3033 RMK AO2 SLP271 T00440022 $
KSLI 251258Z AUTO 06003KT 10SM CLR 05/M01 A3017 RMK AO2 SLP220 T00531014 $
KSMF 251253Z 31005KT 10SM CLR 01/M01 A3032 RMK AO2 SLP267 T00111006
KSMO 251251Z 04004KT 10SM CLR 07/02 A3018 RMK AO2 SLP220 T00720017
KSMX 251251Z AUTO 02013KT 10SM CLR 08/02 A3023 RMK AO2 SLP240 T00830022
     PWINO $
KSNA 251253Z AUTO 03004KT 10SM CLR 07/00 A3018 RMK AO2 SLP219 T00670000
KSNS 251253Z AUTO 00000KT 10SM CLR 02/01 A3032 RMK AO2 SLP278 T00220011
KSQL 251315Z AUTO 00000KT 10SM CLR 04/02 A3033 RMK AO2
KSTS 251253Z AUTO 03007KT 10SM CLR 03/01 A3033 RMK AO2 SLP264 T00280006
KSVE 251315Z AUTO 27003KT 10SM CLR M07/M10 A3026 RMK AO2
KSUU 251258Z AUTO 24006KT 10SM CLR 02/01 A3031 RMK AO2 SLP271 T00180011 $
KTRK 251315Z AUTO 00000KT 10SM CLR M15/M17 A3023 RMK AO2
KTRM 251252Z AUTO 22003KT 10SM CLR 01/M07 A3020 RMK AO2 SLP227 T00061067
KTSP 251315Z AUTO 34003KT 10SM CLR M07/M10 A3023 RMK AO2
KTVL 251253Z AUTO 19003KT 10SM CLR M16/M18 A3020 RMK AO2 SLP281 T11611183
KUKI 251256Z AUTO 00000KT 10SM CLR M01/M03 A3037 RMK AO2 SLP286 T10061028
KVBG 251258Z AUTO 04009KT 10SM CLR 07/02 A3022 RMK AO2 SLP238 T00670015
     CHINO RWY12 $
KVCB 251253Z AUTO 00000KT 10SM CLR 01/00 A3034 RMK AO2 SLP272 T00110000
KVCV 251315Z AUTO 00000KT 10SM CLR M02/M11 A3023 RMK AO2
KVIS 251256Z AUTO 10003KT 10SM CLR 01/M03 A3031 RMK AO2 SLP273 T00061033
     FZRANO
KVNY 251251Z AUTO 36014G19KT 10SM CLR 09/M07 A3015 RMK AO2 SLP207
     T00941067
KWJF 251256Z AUTO 21003KT 10SM CLR M01/M09 A3024 RMK AO2 SLP254 T10061089
KWVI 251253Z AUTO 32004KT 10SM CLR 02/01 A3033 RMK AO2 SLP271 T00220006